Time;durP1;ratioP1;P1;durP2;ratioP2;P2;SDS_P1;SDS_P2;PMS_P1;PMS_P2;Temp;Humidity;BMP_temperature;BMP_pressure;BME280_temperature;BME280_humidity;BME280_pressure;Samples;Min_cycle;Max_cycle;Signal;HPM_P1;HPM_P2
2023/03/05 00:01:46;;;;;;;7.20;1.83;;;;;;;11.61;47.72;102399.88;5066353;28;20024;-67
2023/03/05 00:04:13;;;;;;;14.67;2.07;;;;;;;11.81;47.50;102396.59;5066553;28;20046;-67
2023/03/05 00:06:38;;;;;;;12.33;2.23;;;;;;;11.69;47.22;102399.94;5065378;28;20386;-67
2023/03/05 00:09:05;;;;;;;9.93;2.17;;;;;;;11.87;47.66;102402.75;5068012;28;20132;-67
2023/03/05 00:11:32;;;;;;;12.93;3.63;;;;;;;11.64;47.99;102392.06;5067369;28;20027;-67
2023/03/05 00:13:59;;;;;;;14.23;4.87;;;;;;;11.61;47.78;102384.16;5065721;28;20085;-69
2023/03/05 00:16:25;;;;;;;28.40;6.90;;;;;;;11.55;47.38;102378.84;5067118;28;20495;-67
2023/03/05 00:18:51;;;;;;;32.07;8.80;;;;;;;11.59;48.22;102380.63;5065304;28;20115;-67
2023/03/05 00:21:17;;;;;;;24.87;8.70;;;;;;;11.64;47.04;102373.72;5067923;28;20099;-67
2023/03/05 00:23:42;;;;;;;41.63;11.90;;;;;;;11.67;47.44;102378.13;5067271;28;20018;-67
2023/03/05 00:26:07;;;;;;;38.40;12.97;;;;;;;11.49;47.80;102369.19;5065741;28;20024;-67
2023/03/05 00:28:33;;;;;;;37.43;11.50;;;;;;;11.08;48.56;102374.84;5066305;28;20450;-67
2023/03/05 00:31:00;;;;;;;23.57;8.47;;;;;;;11.22;48.41;102377.63;5066555;28;20036;-68
2023/03/05 00:33:25;;;;;;;26.30;8.80;;;;;;;11.32;47.62;102371.63;5064945;28;20024;-67
2023/03/05 00:35:51;;;;;;;31.47;9.77;;;;;;;11.21;47.63;102378.50;5067303;28;20104;-67
2023/03/05 00:38:16;;;;;;;31.33;11.43;;;;;;;10.99;48.89;102367.75;5069993;28;20020;-67
2023/03/05 00:40:42;;;;;;;28.13;10.67;;;;;;;10.86;49.32;102371.06;5069061;28;20483;-67
2023/03/05 00:43:08;;;;;;;31.53;11.17;;;;;;;10.92;49.26;102368.53;5069375;28;20104;-67
2023/03/05 00:45:33;;;;;;;23.53;7.73;;;;;;;10.73;48.84;102369.13;5068942;28;20028;-67
2023/03/05 00:47:59;;;;;;;16.70;7.60;;;;;;;10.77;49.30;102360.47;5053572;28;20039;-68
2023/03/05 00:50:26;;;;;;;16.37;6.83;;;;;;;10.83;48.49;102360.56;5071842;28;20032;-67
2023/03/05 00:52:51;;;;;;;16.83;7.73;;;;;;;11.00;48.16;102359.06;5069344;28;20067;-67
2023/03/05 00:55:17;;;;;;;13.53;6.60;;;;;;;11.09;47.85;102355.66;5067552;28;20124;-67
2023/03/05 00:57:42;;;;;;;11.50;5.07;;;;;;;11.15;47.93;102350.47;5069663;28;20423;-67
2023/03/05 01:00:09;;;;;;;18.10;5.33;;;;;;;10.85;48.95;102337.91;5069129;28;20020;-68
2023/03/05 01:02:34;;;;;;;12.93;2.70;;;;;;;10.83;48.45;102344.88;5052315;28;20143;-67
2023/03/05 01:05:00;;;;;;;13.77;2.27;;;;;;;10.83;48.12;102339.63;5071035;28;20115;-67
2023/03/05 01:07:25;;;;;;;15.73;3.10;;;;;;;10.17;50.02;102342.16;5067330;28;20025;-67
2023/03/05 01:09:50;;;;;;;8.97;2.33;;;;;;;10.49;50.52;102347.88;5068524;28;20058;-67
2023/03/05 01:12:16;;;;;;;12.93;2.30;;;;;;;10.14;50.25;102342.13;5071275;28;20376;-67
2023/03/05 01:14:41;;;;;;;7.17;2.17;;;;;;;10.90;49.02;102346.69;5068297;28;20024;-67
2023/03/05 01:17:07;;;;;;;11.53;2.23;;;;;;;11.05;48.73;102345.16;5067310;28;20036;-68
2023/03/05 01:19:32;;;;;;;8.57;2.17;;;;;;;11.02;48.62;102333.78;5070574;28;20021;-68
2023/03/05 01:21:58;;;;;;;12.37;2.30;;;;;;;10.76;49.25;102332.59;5066502;28;20531;-67
2023/03/05 01:24:23;;;;;;;13.90;2.40;;;;;;;10.78;49.11;102330.84;5068909;28;20039;-67
2023/03/05 01:26:49;;;;;;;10.40;2.30;;;;;;;10.80;49.48;102321.31;5067347;28;20052;-67
2023/03/05 01:29:14;;;;;;;11.23;3.20;;;;;;;10.94;48.79;102324.94;5068894;28;20028;-67
2023/03/05 01:31:40;;;;;;;13.27;3.67;;;;;;;10.85;48.86;102315.25;5069073;28;20036;-67
2023/03/05 01:34:05;;;;;;;13.47;2.50;;;;;;;10.89;48.72;102313.53;5068876;28;20021;-67
2023/03/05 01:36:31;;;;;;;7.47;2.00;;;;;;;10.74;49.51;102313.34;5067232;28;20468;-67
2023/03/05 01:38:56;;;;;;;12.67;2.73;;;;;;;10.99;49.26;102314.53;5070384;28;20043;-68
2023/03/05 01:41:22;;;;;;;3.97;2.10;;;;;;;10.93;49.15;102306.63;5068557;28;20017;-70
2023/03/05 01:43:48;;;;;;;17.53;2.53;;;;;;;10.77;49.66;102297.69;5068172;28;20024;-67
2023/03/05 01:46:15;;;;;;;9.20;2.10;;;;;;;11.40;49.02;102295.78;5070011;28;20048;-69
2023/03/05 01:48:46;;;;;;;9.87;1.80;;;;;;;11.74;47.77;102298.72;5066586;28;20070;-69
2023/03/05 01:51:12;;;;;;;9.03;2.20;;;;;;;11.49;47.86;102287.16;5069018;28;20040;-69
2023/03/05 01:53:38;;;;;;;9.80;1.93;;;;;;;11.69;48.22;102277.72;5068136;28;20025;-67
2023/03/05 01:56:04;;;;;;;13.50;2.00;;;;;;;11.61;48.30;102284.66;5067962;28;20028;-67
2023/03/05 01:58:30;;;;;;;12.40;2.00;;;;;;;11.28;48.29;102274.72;5068119;28;20453;-69
2023/03/05 02:00:56;;;;;;;10.70;3.43;;;;;;;11.37;48.69;102270.47;5069239;28;20531;-67
2023/03/05 02:03:22;;;;;;;6.70;2.07;;;;;;;11.88;47.69;102259.53;5069505;28;20028;-67
2023/03/05 02:05:48;;;;;;;9.57;2.40;;;;;;;11.58;47.03;102260.16;5068425;28;20089;-67
2023/03/05 02:08:17;;;;;;;9.97;2.40;;;;;;;11.89;46.94;102259.53;5067966;28;20435;-67
2023/03/05 02:10:57;;;;;;;8.30;1.73;;;;;;;11.90;47.39;102255.19;5065722;28;20040;-67
2023/03/05 02:13:37;;;;;;;14.03;1.93;;;;;;;11.83;47.45;102253.41;5068005;28;20065;-67
2023/03/05 02:16:03;;;;;;;7.33;2.50;;;;;;;11.63;48.42;102246.22;5067329;28;20036;-67
2023/03/05 02:18:28;;;;;;;10.97;2.20;;;;;;;11.85;47.24;102241.16;5066123;28;20035;-67
2023/03/05 02:20:57;;;;;;;11.77;2.13;;;;;;;12.31;46.09;102244.13;5069134;28;20032;-67
2023/03/05 02:23:25;;;;;;;8.13;1.53;;;;;;;12.12;45.95;102240.50;5067585;28;20064;-67
2023/03/05 02:25:51;;;;;;;9.10;1.83;;;;;;;11.78;46.84;102226.28;5066505;28;20045;-67
2023/03/05 02:28:23;;;;;;;17.43;2.60;;;;;;;11.37;47.60;102220.72;5066801;28;20032;-67
2023/03/05 02:30:49;;;;;;;4.63;1.65;;;;;;;11.24;48.33;102221.47;5067269;28;20033;-69
2023/03/05 02:33:16;;;;;;;8.40;2.20;;;;;;;11.22;48.53;102223.19;5066190;28;20035;-69
2023/03/05 02:35:42;;;;;;;10.07;2.00;;;;;;;11.08;48.21;102219.56;5067674;28;20047;-69
2023/03/05 02:38:08;;;;;;;18.27;2.40;;;;;;;11.01;48.43;102219.50;5067227;28;20484;-67
2023/03/05 02:40:34;;;;;;;4.47;1.93;;;;;;;11.16;48.06;102213.53;5066017;28;20016;-67
2023/03/05 02:42:59;;;;;;;13.20;2.67;;;;;;;11.36;47.38;102207.59;5065933;28;20032;-67
2023/03/05 02:45:25;;;;;;;5.77;1.67;;;;;;;11.21;48.46;102200.53;5068612;28;20020;-67
2023/03/05 02:47:50;;;;;;;6.43;2.13;;;;;;;11.10;47.96;102199.50;5067760;28;20086;-67
2023/03/05 02:50:16;;;;;;;11.50;1.63;;;;;;;11.36;47.00;102194.50;5067714;28;20197;-67
2023/03/05 02:52:41;;;;;;;8.07;2.13;;;;;;;10.84;48.83;102197.53;5062926;28;20024;-67
2023/03/05 02:55:07;;;;;;;11.00;2.30;;;;;;;10.93;48.80;102191.50;5066928;28;20115;-67
2023/03/05 02:57:33;;;;;;;10.60;2.20;;;;;;;11.26;47.24;102190.94;5066742;28;20028;-70
2023/03/05 02:59:58;;;;;;;9.33;1.90;;;;;;;10.89;48.00;102192.34;5066125;28;20043;-70
2023/03/05 03:02:23;;;;;;;13.40;2.03;;;;;;;10.71;48.97;102190.41;5065543;28;20028;-67
2023/03/05 03:04:49;;;;;;;7.63;1.97;;;;;;;10.78;49.03;102184.38;5066154;28;20090;-67
2023/03/05 03:07:15;;;;;;;6.83;1.77;;;;;;;10.90;49.92;102184.50;5067760;28;20067;-67
2023/03/05 03:09:41;;;;;;;3.37;1.60;;;;;;;11.07;49.08;102186.41;5067971;28;20032;-67
2023/03/05 03:12:08;;;;;;;10.47;1.90;;;;;;;11.44;47.41;102181.50;5067124;28;20029;-67
2023/03/05 03:14:38;;;;;;;7.63;2.23;;;;;;;11.31;47.88;102181.41;5067756;28;20097;-67
2023/03/05 03:17:10;;;;;;;7.90;2.97;;;;;;;11.35;48.65;102167.47;5067375;28;20033;-67
2023/03/05 03:19:36;;;;;;;7.23;2.53;;;;;;;11.60;48.16;102162.41;5065832;28;20217;-67
2023/03/05 03:22:02;;;;;;;9.80;1.90;;;;;;;11.37;48.06;102154.38;5067800;28;20017;-67
2023/03/05 03:24:29;;;;;;;4.80;2.10;;;;;;;11.42;48.68;102162.31;5063670;28;20167;-68
2023/03/05 03:26:55;;;;;;;13.00;2.10;;;;;;;11.35;48.26;102150.91;5047180;28;20110;-68
2023/03/05 03:29:20;;;;;;;7.70;2.20;;;;;;;11.16;49.22;102149.88;5057150;28;20530;-68
2023/03/05 03:31:46;;;;;;;9.23;1.93;;;;;;;10.98;49.37;102146.22;5068069;28;20043;-68
2023/03/05 03:34:12;;;;;;;7.73;2.17;;;;;;;11.19;49.36;102144.66;5066252;28;20637;-68
2023/03/05 03:36:38;;;;;;;5.97;1.57;;;;;;;11.20;48.47;102146.41;5067549;28;20361;-68
2023/03/05 03:39:04;;;;;;;6.50;1.83;;;;;;;11.18;49.13;102142.88;5066600;28;20031;-68
2023/03/05 03:41:31;;;;;;;7.30;1.50;;;;;;;11.05;49.72;102143.66;5066944;28;20173;-68
2023/03/05 03:43:56;;;;;;;7.97;1.60;;;;;;;10.53;50.36;102147.50;5065104;28;20115;-68
2023/03/05 03:46:22;;;;;;;8.43;2.53;;;;;;;11.28;49.44;102147.34;5067010;28;20213;-68
2023/03/05 03:48:49;;;;;;;7.07;1.70;;;;;;;10.55;50.91;102150.13;5065629;28;20036;-68
2023/03/05 03:51:14;;;;;;;7.90;1.63;;;;;;;10.27;52.79;102153.25;5066179;28;20484;-68
2023/03/05 03:53:40;;;;;;;7.37;1.70;;;;;;;9.97;54.36;102157.25;5068268;28;20147;-68
2023/03/05 03:56:05;;;;;;;8.90;1.37;;;;;;;9.54;57.19;102146.19;5065713;28;20507;-69
2023/03/05 03:58:31;;;;;;;9.23;1.40;;;;;;;10.34;55.48;102142.06;5066409;28;20028;-68
2023/03/05 04:00:57;;;;;;;11.37;2.97;;;;;;;10.49;55.70;102145.72;5067642;28;20036;-68
2023/03/05 04:03:22;;;;;;;12.07;3.23;;;;;;;10.88;54.84;102139.16;5065795;28;20111;-68
2023/03/05 04:05:47;;;;;;;10.90;2.90;;;;;;;11.59;51.96;102133.59;5067680;28;20078;-69
2023/03/05 04:08:13;;;;;;;6.07;1.40;;;;;;;11.27;52.11;102132.50;5066597;28;20024;-68
2023/03/05 04:10:38;;;;;;;5.57;1.40;;;;;;;10.47;54.20;102122.16;5067207;28;20434;-68
2023/03/05 04:13:04;;;;;;;9.00;1.40;;;;;;;11.43;52.45;102116.91;5070042;28;20547;-68
2023/03/05 04:15:31;;;;;;;7.47;3.90;;;;;;;10.97;54.24;102118.28;5070166;28;20107;-67
2023/03/05 04:17:56;;;;;;;3.70;1.10;;;;;;;11.35;51.89;102115.13;5069321;28;20028;-68
2023/03/05 04:20:22;;;;;;;7.90;1.40;;;;;;;11.67;51.67;102106.59;5070856;28;20013;-68
2023/03/05 04:22:47;;;;;;;8.40;1.80;;;;;;;11.31;51.94;102110.72;5068423;28;20503;-68
2023/03/05 04:25:12;;;;;;;8.23;1.60;;;;;;;11.56;51.87;102103.03;5071209;28;20476;-68
2023/03/05 04:27:39;;;;;;;6.53;1.73;;;;;;;11.59;51.74;102102.19;5071538;28;20152;-68
2023/03/05 04:30:05;;;;;;;4.90;1.40;;;;;;;11.95;50.61;102098.91;5070539;28;20115;-68
2023/03/05 04:32:31;;;;;;;4.83;2.07;;;;;;;11.88;50.96;102092.75;5070101;28;20121;-68
2023/03/05 04:34:56;;;;;;;4.93;1.50;;;;;;;11.56;51.12;102089.94;5071713;28;20048;-68
2023/03/05 04:37:23;;;;;;;5.13;1.60;;;;;;;11.49;52.10;102081.16;5071481;28;20029;-68
2023/03/05 04:39:49;;;;;;;4.77;1.30;;;;;;;11.58;51.10;102085.59;5069316;28;20071;-68
2023/03/05 04:42:15;;;;;;;3.33;1.17;;;;;;;12.07;50.36;102089.34;5068685;28;20388;-67
2023/03/05 04:44:40;;;;;;;4.60;1.20;;;;;;;11.48;51.32;102084.63;5086755;28;20275;-68
2023/03/05 04:47:06;;;;;;;3.30;1.27;;;;;;;11.37;51.58;102087.22;5068941;28;20051;-68
2023/03/05 04:49:31;;;;;;;8.60;1.70;;;;;;;11.30;51.35;102077.56;5071154;28;20035;-68
2023/03/05 04:51:56;;;;;;;5.97;1.47;;;;;;;11.41;50.81;102089.84;5068681;28;20029;-68
2023/03/05 04:54:23;;;;;;;6.17;1.60;;;;;;;11.49;50.43;102080.31;5068698;28;20024;-67
2023/03/05 04:56:48;;;;;;;3.00;1.30;;;;;;;11.49;50.69;102075.06;5070219;28;20060;-68
2023/03/05 04:59:14;;;;;;;6.40;1.60;;;;;;;11.53;51.00;102076.84;5069360;28;20514;-68
2023/03/05 05:01:40;;;;;;;10.53;2.00;;;;;;;11.56;49.14;102071.59;5069469;28;20108;-68
2023/03/05 05:04:05;;;;;;;4.97;1.50;;;;;;;11.46;50.22;102064.59;5069643;28;20244;-68
2023/03/05 05:06:30;;;;;;;6.63;1.77;;;;;;;11.63;49.62;102062.91;5067865;28;20571;-68
2023/03/05 05:08:56;;;;;;;4.83;1.73;;;;;;;11.53;50.29;102061.13;5068012;28;20032;-67
2023/03/05 05:11:21;;;;;;;2.80;1.90;;;;;;;11.58;49.87;102054.19;5071323;28;20094;-68
2023/03/05 05:13:47;;;;;;;4.40;2.30;;;;;;;11.56;50.26;102053.28;5067325;28;20119;-68
2023/03/05 05:16:12;;;;;;;5.13;2.70;;;;;;;11.50;50.77;102050.63;5071238;28;20032;-68
2023/03/05 05:18:37;;;;;;;4.73;2.50;;;;;;;11.87;49.46;102058.69;5068506;28;20048;-68
2023/03/05 05:21:08;;;;;;;5.90;3.13;;;;;;;11.59;50.67;102050.66;5067928;28;20480;-68
2023/03/05 05:23:34;;;;;;;6.70;3.37;;;;;;;10.00;55.46;102058.03;5068122;28;20158;-68
2023/03/05 05:26:00;;;;;;;6.67;2.13;;;;;;;9.58;57.64;102054.00;5068700;28;20537;-68
2023/03/05 05:28:26;;;;;;;4.37;2.20;;;;;;;9.79;56.35;102049.91;5068533;28;20459;-68
2023/03/05 05:30:52;;;;;;;4.97;2.37;;;;;;;9.40;58.05;102049.41;5067879;28;20059;-68
2023/03/05 05:33:18;;;;;;;5.50;2.23;;;;;;;10.78;54.14;102032.69;5069650;28;20468;-67
2023/03/05 05:35:44;;;;;;;6.63;2.17;;;;;;;10.00;54.78;102041.44;5068159;28;20020;-68
2023/03/05 05:38:09;;;;;;;4.00;2.43;;;;;;;10.77;54.25;102042.28;5068692;28;20490;-67
2023/03/05 05:40:34;;;;;;;6.40;2.70;;;;;;;11.44;51.72;102030.50;5066912;28;20459;-68
2023/03/05 05:43:00;;;;;;;6.90;2.40;;;;;;;11.61;51.02;102028.00;5068176;28;20024;-67
2023/03/05 05:45:25;;;;;;;4.30;2.33;;;;;;;11.65;50.43;102028.88;5070425;28;20503;-67
2023/03/05 05:47:50;;;;;;;4.83;2.33;;;;;;;11.26;51.30;102031.28;5068450;28;20572;-68
2023/03/05 05:50:18;;;;;;;5.93;2.60;;;;;;;11.21;51.02;102027.78;5069391;28;20392;-68
2023/03/05 05:52:44;;;;;;;5.63;3.20;;;;;;;11.25;50.63;102024.31;5067940;28;20020;-67
2023/03/05 05:55:09;;;;;;;6.10;2.57;;;;;;;11.58;50.32;102021.84;5067458;28;20039;-68
2023/03/05 05:57:35;;;;;;;6.47;2.40;;;;;;;11.14;50.48;102020.72;5068873;28;20543;-68
2023/03/05 06:00:02;;;;;;;9.47;2.97;;;;;;;11.28;50.41;102019.09;5066869;28;20141;-68
2023/03/05 06:02:28;;;;;;;8.33;2.93;;;;;;;11.18;50.78;102012.94;5066466;28;20435;-67
2023/03/05 06:04:53;;;;;;;4.10;2.37;;;;;;;11.23;50.59;102020.81;5052950;28;20016;-69
2023/03/05 06:07:19;;;;;;;6.27;2.97;;;;;;;11.19;51.05;102016.41;5054599;28;20025;-67
2023/03/05 06:09:44;;;;;;;6.43;3.00;;;;;;;11.32;50.60;102014.72;5065532;28;20032;-67
2023/03/05 06:12:10;;;;;;;7.20;2.70;;;;;;;11.29;50.70;102015.63;5063628;28;20377;-68
2023/03/05 06:14:35;;;;;;;9.67;3.13;;;;;;;11.08;50.53;102015.47;5069642;28;20095;-68
2023/03/05 06:17:01;;;;;;;7.63;3.10;;;;;;;10.76;51.32;102013.50;5068978;28;20036;-68
2023/03/05 06:19:26;;;;;;;9.13;3.10;;;;;;;10.93;50.81;102013.63;5066091;28;20017;-69
2023/03/05 06:21:51;;;;;;;4.80;2.50;;;;;;;10.63;51.42;102018.63;5067694;28;20111;-67
2023/03/05 06:24:18;;;;;;;7.13;2.80;;;;;;;10.66;52.11;102023.88;5067722;28;20480;-67
2023/03/05 06:26:45;;;;;;;3.77;2.60;;;;;;;10.59;52.79;102021.19;5067769;28;20545;-67
2023/03/05 06:29:11;;;;;;;6.30;2.57;;;;;;;10.32;53.19;102020.91;5066467;28;20033;-67
2023/03/05 06:31:37;;;;;;;5.93;2.20;;;;;;;10.29;55.32;102026.13;5066927;28;20036;-68
2023/03/05 06:34:03;;;;;;;4.30;1.83;;;;;;;9.70;56.76;102032.41;5068973;28;20597;-67
2023/03/05 06:36:31;;;;;;;3.27;1.43;;;;;;;9.60;58.22;102020.97;5065721;28;20098;-68
2023/03/05 06:38:57;;;;;;;3.80;1.10;;;;;;;9.93;55.65;102017.03;5067043;28;20031;-68
2023/03/05 06:41:29;;;;;;;5.93;1.07;;;;;;;10.78;54.55;102011.75;5067598;28;20029;-68
2023/03/05 06:43:55;;;;;;;4.95;1.15;;;;;;;11.22;52.69;102018.19;5067307;28;20034;-68
2023/03/05 06:46:25;;;;;;;4.60;1.03;;;;;;;11.50;51.99;102013.97;5067568;28;20555;-68
2023/03/05 06:48:51;;;;;;;5.60;1.00;;;;;;;11.29;51.94;102015.63;5066196;28;20029;-69
2023/03/05 06:51:19;;;;;;;6.47;1.53;;;;;;;11.18;52.00;102012.03;5067785;28;20400;-68
2023/03/05 06:53:45;;;;;;;8.57;1.50;;;;;;;10.61;54.33;102012.50;5067059;28;20433;-69
2023/03/05 06:56:12;;;;;;;2.53;0.90;;;;;;;10.64;54.87;102009.03;5068273;28;20071;-68
2023/03/05 06:58:39;;;;;;;7.47;1.47;;;;;;;10.74;53.14;102015.22;5066685;28;20073;-68
2023/03/05 07:01:06;;;;;;;4.47;1.00;;;;;;;10.55;54.30;102008.94;5066060;28;20032;-68
2023/03/05 07:03:35;;;;;;;3.43;1.20;;;;;;;9.94;56.76;102010.06;5066730;28;20065;-68
2023/03/05 07:06:05;;;;;;;3.60;1.10;;;;;;;10.38;55.66;102008.81;5067411;28;20039;-68
2023/03/05 07:08:31;;;;;;;4.60;1.60;;;;;;;10.98;52.84;102010.16;5066487;28;20412;-68
2023/03/05 07:10:57;;;;;;;2.70;1.40;;;;;;;10.42;54.65;102000.13;5066452;28;20020;-68
2023/03/05 07:13:23;;;;;;;6.97;2.40;;;;;;;10.71;54.18;101995.16;5066798;28;20028;-68
2023/03/05 07:15:49;;;;;;;3.93;1.97;;;;;;;10.45;55.06;102001.00;5068386;28;20217;-68
2023/03/05 07:18:14;;;;;;;3.67;2.20;;;;;;;10.89;53.41;101991.78;5065743;28;20156;-68
2023/03/05 07:20:40;;;;;;;5.77;2.00;;;;;;;11.23;51.34;101999.88;5066429;28;20028;-68
2023/03/05 07:23:05;;;;;;;4.47;2.20;;;;;;;11.56;51.21;101997.44;5064063;28;20021;-68
2023/03/05 07:25:31;;;;;;;6.93;2.13;;;;;;;11.65;50.88;101997.44;5076769;28;20504;-68
2023/03/05 07:27:57;;;;;;;6.63;2.13;;;;;;;11.12;52.21;101991.06;5066172;28;20032;-68
2023/03/05 07:30:23;;;;;;;5.33;1.93;;;;;;;11.58;51.58;101996.56;5066593;28;20077;-68
2023/03/05 07:32:48;;;;;;;4.97;2.37;;;;;;;11.61;51.09;101991.34;5065937;28;20399;-68
2023/03/05 07:35:13;;;;;;;8.27;2.27;;;;;;;12.05;50.32;101985.38;5068003;28;20028;-68
2023/03/05 07:37:39;;;;;;;7.23;2.30;;;;;;;12.16;50.41;101989.78;5066273;28;20059;-68
2023/03/05 07:40:05;;;;;;;6.73;2.30;;;;;;;12.37;49.88;101989.78;5065232;28;20059;-68
2023/03/05 07:42:31;;;;;;;5.70;2.13;;;;;;;11.91;50.34;101999.28;5066383;28;20111;-68
2023/03/05 07:44:57;;;;;;;4.50;2.37;;;;;;;12.42;50.13;101991.53;5069331;28;20524;-69
2023/03/05 07:47:23;;;;;;;9.47;2.60;;;;;;;12.30;50.72;102003.78;5070235;28;20412;-68
2023/03/05 07:49:49;;;;;;;8.20;3.23;;;;;;;11.81;52.19;102007.09;5069383;28;20043;-68
2023/03/05 07:52:14;;;;;;;6.57;2.60;;;;;;;10.20;56.25;102002.50;5070317;28;20024;-68
2023/03/05 07:54:40;;;;;;;6.07;2.17;;;;;;;10.33;58.97;102009.59;5070452;28;20032;-68
2023/03/05 07:57:07;;;;;;;7.30;1.73;;;;;;;10.88;55.25;102011.00;5070034;28;20521;-68
2023/03/05 07:59:32;;;;;;;3.40;1.27;;;;;;;10.90;55.09;102011.84;5069228;28;20074;-68
2023/03/05 08:01:58;;;;;;;4.60;1.13;;;;;;;11.17;54.62;102005.06;5070425;28;20395;-68
2023/03/05 08:04:24;;;;;;;3.63;0.90;;;;;;;11.38;52.90;101992.09;5070011;28;20024;-68
2023/03/05 08:06:49;;;;;;;3.80;0.97;;;;;;;12.15;50.07;101985.41;5059952;28;20559;-68
2023/03/05 08:09:16;;;;;;;2.83;0.77;;;;;;;12.17;50.65;101988.91;5053396;28;20036;-69
2023/03/05 08:11:41;;;;;;;3.23;0.70;;;;;;;12.37;50.27;101971.44;5051445;28;20112;-69
2023/03/05 08:14:07;;;;;;;1.90;0.80;;;;;;;12.83;48.08;101973.19;5051830;28;20115;-68
2023/03/05 08:16:33;;;;;;;3.60;1.47;;;;;;;12.36;50.75;101977.59;5068953;28;20053;-69
2023/03/05 08:18:58;;;;;;;3.27;1.50;;;;;;;13.21;48.84;101968.72;5064439;28;20119;-69
2023/03/05 08:21:28;;;;;;;1.50;0.80;;;;;;;13.39;48.85;101973.97;5070920;28;20052;-68
2023/03/05 08:23:55;;;;;;;1.20;0.90;;;;;;;13.57;45.69;101969.50;5065567;28;20020;-69
2023/03/05 08:26:22;;;;;;;2.97;1.00;;;;;;;12.81;47.92;101966.19;5071997;28;20036;-68
2023/03/05 08:28:48;;;;;;;4.73;0.83;;;;;;;13.09;47.45;101963.50;5066567;28;20127;-68
2023/03/05 08:31:15;;;;;;;6.93;1.83;;;;;;;12.92;47.86;101969.66;5050385;28;20123;-69
2023/03/05 08:33:41;;;;;;;4.97;2.07;;;;;;;13.45;48.15;101966.94;5068352;28;20036;-69
2023/03/05 08:36:08;;;;;;;7.10;2.23;;;;;;;13.26;47.03;101961.72;5054544;28;20115;-69
2023/03/05 08:38:33;;;;;;;6.30;2.40;;;;;;;13.41;47.46;101963.47;5061978;28;20094;-68
2023/03/05 08:40:59;;;;;;;3.43;0.83;;;;;;;13.68;47.02;101959.84;5061133;28;20024;-64
2023/03/05 08:43:24;;;;;;;1.40;0.80;;;;;;;13.66;47.15;101950.22;5067967;28;20622;-65
2023/03/05 08:45:52;;;;;;;2.80;1.40;;;;;;;12.99;47.69;101952.16;5064081;28;20063;-64
2023/03/05 08:48:18;;;;;;;4.13;0.97;;;;;;;13.89;46.39;101948.31;5065904;28;20460;-68
2023/03/05 08:50:43;;;;;;;1.20;1.00;;;;;;;14.14;46.37;101942.03;5062926;28;20028;-68
2023/03/05 08:53:08;;;;;;;4.13;1.10;;;;;;;13.28;47.04;101949.44;5064727;28;20533;-68
2023/03/05 08:55:34;;;;;;;4.43;0.80;;;;;;;12.85;47.95;101939.94;5066793;28;20247;-68
2023/03/05 08:57:59;;;;;;;2.67;0.80;;;;;;;13.40;48.29;101936.31;5067746;28;20024;-69
2023/03/05 09:00:25;;;;;;;3.23;1.63;;;;;;;14.08;46.36;101938.56;5069150;28;20036;-68
2023/03/05 09:02:50;;;;;;;4.23;1.80;;;;;;;13.76;46.52;101932.66;5068431;28;20439;-68
2023/03/05 09:05:16;;;;;;;4.83;1.90;;;;;;;14.19;46.63;101924.44;5068796;28;20117;-68
2023/03/05 09:07:41;;;;;;;4.20;1.60;;;;;;;13.76;45.92;101930.03;5066326;28;20178;-68
2023/03/05 09:10:10;;;;;;;4.40;1.57;;;;;;;14.39;45.29;101922.53;5063465;28;20161;-68
2023/03/05 09:12:36;;;;;;;2.30;1.23;;;;;;;13.67;45.90;101926.56;5069796;28;20035;-68
2023/03/05 09:15:03;;;;;;;4.80;0.90;;;;;;;13.34;47.30;101938.03;5070821;28;20036;-68
2023/03/05 09:17:28;;;;;;;9.37;1.27;;;;;;;13.00;47.12;101930.31;5071130;28;20024;-68
2023/03/05 09:19:54;;;;;;;3.73;0.80;;;;;;;13.56;46.26;101929.25;5052434;28;20029;-68
2023/03/05 09:22:19;;;;;;;1.80;1.00;;;;;;;14.38;46.33;101926.06;5070098;28;20032;-68
2023/03/05 09:24:44;;;;;;;6.10;1.40;;;;;;;13.21;48.16;101926.72;5068081;28;20028;-68
2023/03/05 09:27:10;;;;;;;5.80;1.57;;;;;;;13.93;47.34;101928.16;5057279;28;20021;-68
2023/03/05 09:29:35;;;;;;;9.87;1.57;;;;;;;13.49;48.09;101929.25;5049021;28;20362;-68
2023/03/05 09:32:00;;;;;;;6.13;1.33;;;;;;;13.10;47.13;101923.28;5060882;28;20037;-68
2023/03/05 09:34:26;;;;;;;3.30;1.77;;;;;;;12.35;49.07;101922.50;5070147;28;20095;-68
2023/03/05 09:36:51;;;;;;;5.27;2.03;;;;;;;12.95;47.64;101919.78;5050870;28;20028;-68
2023/03/05 09:39:17;;;;;;;2.47;1.40;;;;;;;12.62;48.31;101918.13;5056160;28;20510;-68
2023/03/05 09:42:07;;;;;;;5.80;1.50;;;;;;;12.48;49.45;101918.13;5063542;28;20025;-68
2023/03/05 09:44:50;;;;;;;3.83;1.57;;;;;;;12.83;48.50;101922.44;5049856;28;20036;-68
2023/03/05 09:47:19;;;;;;;6.20;2.10;;;;;;;13.69;47.23;101916.03;5065513;28;20064;-68
2023/03/05 09:49:51;;;;;;;3.17;1.30;;;;;;;11.23;54.43;101931.81;5065286;28;20264;-69
2023/03/05 09:52:33;;;;;;;3.07;1.10;;;;;;;11.03;54.78;101929.97;5064277;28;20103;-68
2023/03/05 09:54:59;;;;;;;3.67;0.80;;;;;;;11.53;54.06;101935.44;5055070;28;20115;-69
2023/03/05 09:58:01;;;;;;;4.57;1.00;;;;;;;11.28;54.28;101929.22;5063658;28;20115;-70
2023/03/05 10:00:48;;;;;;;6.95;0.90;;;;;;;10.45;55.76;101929.56;5012889;28;20049;-69
2023/03/05 10:03:21;;;;;;;4.53;0.90;;;;;;;11.46;53.37;101933.69;5067817;28;20107;-70
2023/03/05 10:05:59;;;;;;;3.87;0.80;;;;;;;12.03;51.69;101926.88;5049678;28;20028;-69
2023/03/05 10:08:35;;;;;;;3.37;0.80;;;;;;;12.50;50.87;101921.63;5049865;28;20028;-69
2023/03/05 10:11:06;;;;;;;3.93;1.03;;;;;;;11.85;52.97;101921.56;5065576;28;20051;-69
2023/03/05 10:13:39;;;;;;;2.73;0.77;;;;;;;12.61;50.12;101909.41;5067264;28;20017;-69
2023/03/05 10:16:40;;;;;;;4.25;0.88;;;;;;;12.95;49.16;101911.94;5069299;28;20028;-68
2023/03/05 10:20:01;;;;;;;3.40;1.00;;;;;;;12.85;49.43;101910.22;5065478;28;20051;-68
2023/03/05 10:22:41;;;;;;;6.50;0.93;;;;;;;13.08;49.62;101904.91;5009513;28;20029;-68
2023/03/05 10:25:33;;;;;;;3.07;0.90;;;;;;;13.29;49.19;101903.94;5056035;28;20143;-68
2023/03/05 10:28:07;;;;;;;5.00;1.30;;;;;;;12.18;51.12;101909.41;5058170;28;20039;-68
2023/03/05 10:31:03;;;;;;;3.17;1.40;;;;;;;11.18;53.49;101908.25;5046927;28;20123;-68
2023/03/05 10:33:42;;;;;;;4.23;1.30;;;;;;;11.64;53.11;101897.06;5055536;28;20032;-68
2023/03/05 10:36:37;;;;;;;3.13;1.30;;;;;;;12.38;51.74;101886.69;5068547;28;20166;-68
2023/03/05 10:39:40;;;;;;;3.97;1.60;;;;;;;13.17;50.05;101889.09;5066676;28;20032;-68
2023/03/05 10:42:26;;;;;;;4.68;2.17;;;;;;;13.32;47.83;101877.66;5064814;28;20044;-69
2023/03/05 10:44:55;;;;;;;4.17;2.10;;;;;;;13.30;48.73;101879.44;5066686;28;20464;-68
2023/03/05 10:47:23;;;;;;;2.00;1.33;;;;;;;13.89;48.29;101868.63;5066657;28;20931;-68
2023/03/05 10:49:51;;;;;;;3.37;1.40;;;;;;;14.20;47.57;101868.34;5064718;28;20033;-69
2023/03/05 10:52:24;;;;;;;5.63;1.43;;;;;;;14.81;45.74;101860.75;5062846;28;20036;-69
2023/03/05 10:54:49;;;;;;;1.90;1.40;;;;;;;15.81;43.93;101850.69;5066965;28;20056;-69
2023/03/05 10:57:24;;;;;;;2.60;1.03;;;;;;;15.50;44.47;101840.59;5067820;28;20032;-69
2023/03/05 11:00:18;;;;;;;6.97;1.30;;;;;;;14.93;42.37;101850.09;5051015;28;20029;-68
2023/03/05 11:03:05;;;;;;;3.87;0.90;;;;;;;15.29;43.06;101833.84;5061590;28;20169;-69
2023/03/05 11:05:33;;;;;;;5.07;1.07;;;;;;;15.11;43.66;101827.94;5067484;28;20145;-71
2023/03/05 11:07:58;;;;;;;1.17;0.80;;;;;;;13.87;46.48;101834.44;5065573;28;20028;-68
2023/03/05 11:10:24;;;;;;;2.13;0.77;;;;;;;13.90;45.10;101830.91;5067822;28;20069;-68
2023/03/05 11:12:49;;;;;;;6.17;0.90;;;;;;;15.63;42.61;101815.78;5065570;28;20036;-69
2023/03/05 11:15:14;;;;;;;1.37;0.90;;;;;;;15.16;42.69;101817.34;5069172;28;20024;-69
2023/03/05 11:17:43;;;;;;;3.80;0.80;;;;;;;15.81;41.92;101813.78;5066952;28;20472;-69
2023/03/05 11:20:27;;;;;;;2.80;1.10;;;;;;;15.82;41.81;101811.13;5064803;28;20107;-68
2023/03/05 11:23:05;;;;;;;3.17;0.90;;;;;;;16.06;40.22;101807.22;5068116;28;20016;-69
2023/03/05 11:25:32;;;;;;;2.87;1.73;;;;;;;16.27;41.31;101803.31;5067323;28;20028;-69
2023/03/05 11:28:00;;;;;;;3.37;0.80;;;;;;;15.06;40.94;101803.44;5065043;28;20942;-69